sensor_id;sensor_type;location;lat;lon;timestamp;P1;durP1;ratioP1;P2;durP2;ratioP2
40198;SDS011;25906;43.536;26.068;2023-06-10T00:00:12;4.03;;;2.85;;
40198;SDS011;25906;43.536;26.068;2023-06-10T00:03:00;5.63;;;2.85;;
40198;SDS011;25906;43.536;26.068;2023-06-10T00:08:31;4.88;;;2.88;;
40198;SDS011;25906;43.536;26.068;2023-06-10T00:11:18;6.18;;;3.00;;
40198;SDS011;25906;43.536;26.068;2023-06-10T00:14:03;6.00;;;3.40;;
40198;SDS011;25906;43.536;26.068;2023-06-10T00:16:49;6.03;;;2.92;;
40198;SDS011;25906;43.536;26.068;2023-06-10T00:19:35;5.75;;;3.50;;
40198;SDS011;25906;43.536;26.068;2023-06-10T00:22:26;6.80;;;3.28;;
40198;SDS011;25906;43.536;26.068;2023-06-10T00:25:14;6.05;;;3.67;;
40198;SDS011;25906;43.536;26.068;2023-06-10T00:28:00;5.90;;;3.50;;
40198;SDS011;25906;43.536;26.068;2023-06-10T00:30:45;5.90;;;3.92;;
40198;SDS011;25906;43.536;26.068;2023-06-10T00:33:31;6.32;;;2.90;;
40198;SDS011;25906;43.536;26.068;2023-06-10T00:36:16;10.88;;;3.72;;
40198;SDS011;25906;43.536;26.068;2023-06-10T00:39:02;4.07;;;3.10;;
40198;SDS011;25906;43.536;26.068;2023-06-10T00:41:49;10.38;;;3.70;;
40198;SDS011;25906;43.536;26.068;2023-06-10T00:44:34;6.68;;;3.38;;
40198;SDS011;25906;43.536;26.068;2023-06-10T00:47:19;8.65;;;3.58;;
40198;SDS011;25906;43.536;26.068;2023-06-10T00:50:05;6.18;;;3.28;;
40198;SDS011;25906;43.536;26.068;2023-06-10T00:52:53;5.78;;;3.10;;
40198;SDS011;25906;43.536;26.068;2023-06-10T00:55:40;7.03;;;3.50;;
40198;SDS011;25906;43.536;26.068;2023-06-10T00:58:26;4.53;;;3.40;;
40198;SDS011;25906;43.536;26.068;2023-06-10T01:01:12;4.82;;;3.67;;
40198;SDS011;25906;43.536;26.068;2023-06-10T01:03:58;4.03;;;3.50;;
40198;SDS011;25906;43.536;26.068;2023-06-10T01:06:58;4.15;;;3.20;;
40198;SDS011;25906;43.536;26.068;2023-06-10T01:09:56;5.22;;;3.53;;
40198;SDS011;25906;43.536;26.068;2023-06-10T01:13:02;5.88;;;3.30;;
40198;SDS011;25906;43.536;26.068;2023-06-10T01:15:48;4.90;;;3.28;;
40198;SDS011;25906;43.536;26.068;2023-06-10T01:18:34;7.05;;;3.75;;
40198;SDS011;25906;43.536;26.068;2023-06-10T01:21:21;8.45;;;3.50;;
40198;SDS011;25906;43.536;26.068;2023-06-10T01:24:09;5.07;;;3.50;;
40198;SDS011;25906;43.536;26.068;2023-06-10T01:26:55;5.75;;;3.58;;
40198;SDS011;25906;43.536;26.068;2023-06-10T01:29:47;7.25;;;3.92;;
40198;SDS011;25906;43.536;26.068;2023-06-10T01:32:44;8.50;;;3.90;;
40198;SDS011;25906;43.536;26.068;2023-06-10T01:35:32;4.72;;;3.20;;
40198;SDS011;25906;43.536;26.068;2023-06-10T01:38:21;5.25;;;3.97;;
40198;SDS011;25906;43.536;26.068;2023-06-10T01:41:10;7.28;;;3.60;;
40198;SDS011;25906;43.536;26.068;2023-06-10T01:43:58;7.10;;;3.65;;
40198;SDS011;25906;43.536;26.068;2023-06-10T01:46:43;7.95;;;3.55;;
40198;SDS011;25906;43.536;26.068;2023-06-10T01:49:29;4.65;;;3.67;;
40198;SDS011;25906;43.536;26.068;2023-06-10T01:52:15;6.25;;;3.92;;
40198;SDS011;25906;43.536;26.068;2023-06-10T01:57:46;5.75;;;3.70;;
40198;SDS011;25906;43.536;26.068;2023-06-10T02:00:31;7.95;;;4.13;;
40198;SDS011;25906;43.536;26.068;2023-06-10T02:03:17;6.65;;;3.92;;
40198;SDS011;25906;43.536;26.068;2023-06-10T02:06:03;4.55;;;3.58;;
40198;SDS011;25906;43.536;26.068;2023-06-10T02:08:49;8.30;;;3.90;;
40198;SDS011;25906;43.536;26.068;2023-06-10T02:11:34;5.97;;;3.80;;
40198;SDS011;25906;43.536;26.068;2023-06-10T02:14:20;4.07;;;3.20;;
40198;SDS011;25906;43.536;26.068;2023-06-10T02:19:51;7.20;;;3.72;;
40198;SDS011;25906;43.536;26.068;2023-06-10T02:22:39;5.00;;;3.28;;
40198;SDS011;25906;43.536;26.068;2023-06-10T02:25:25;10.43;;;3.72;;
40198;SDS011;25906;43.536;26.068;2023-06-10T02:28:10;8.80;;;3.58;;
40198;SDS011;25906;43.536;26.068;2023-06-10T02:30:56;4.95;;;3.70;;
40198;SDS011;25906;43.536;26.068;2023-06-10T02:36:27;8.95;;;3.90;;
40198;SDS011;25906;43.536;26.068;2023-06-10T02:39:12;7.13;;;4.07;;
40198;SDS011;25906;43.536;26.068;2023-06-10T02:41:58;7.78;;;3.95;;
40198;SDS011;25906;43.536;26.068;2023-06-10T02:44:44;6.88;;;3.90;;
40198;SDS011;25906;43.536;26.068;2023-06-10T02:47:29;10.27;;;4.30;;
40198;SDS011;25906;43.536;26.068;2023-06-10T02:53:01;4.90;;;3.58;;
40198;SDS011;25906;43.536;26.068;2023-06-10T02:55:46;5.53;;;3.83;;
40198;SDS011;25906;43.536;26.068;2023-06-10T02:58:32;11.50;;;4.10;;
40198;SDS011;25906;43.536;26.068;2023-06-10T03:01:18;5.35;;;3.72;;
40198;SDS011;25906;43.536;26.068;2023-06-10T03:06:50;5.45;;;4.03;;
40198;SDS011;25906;43.536;26.068;2023-06-10T03:09:35;8.02;;;4.00;;
40198;SDS011;25906;43.536;26.068;2023-06-10T03:12:20;6.78;;;4.32;;
40198;SDS011;25906;43.536;26.068;2023-06-10T03:15:06;7.15;;;4.05;;
40198;SDS011;25906;43.536;26.068;2023-06-10T03:20:37;5.72;;;3.83;;
40198;SDS011;25906;43.536;26.068;2023-06-10T03:23:24;10.90;;;4.47;;
40198;SDS011;25906;43.536;26.068;2023-06-10T03:26:10;6.38;;;4.32;;
40198;SDS011;25906;43.536;26.068;2023-06-10T03:28:57;5.78;;;3.90;;
40198;SDS011;25906;43.536;26.068;2023-06-10T03:31:43;6.32;;;4.05;;
40198;SDS011;25906;43.536;26.068;2023-06-10T03:34:28;7.15;;;3.67;;
40198;SDS011;25906;43.536;26.068;2023-06-10T03:37:17;6.63;;;3.88;;
40198;SDS011;25906;43.536;26.068;2023-06-10T03:40:03;7.43;;;4.47;;
40198;SDS011;25906;43.536;26.068;2023-06-10T03:42:49;5.68;;;3.85;;
40198;SDS011;25906;43.536;26.068;2023-06-10T03:45:35;8.13;;;4.13;;
40198;SDS011;25906;43.536;26.068;2023-06-10T03:48:21;8.70;;;4.10;;
40198;SDS011;25906;43.536;26.068;2023-06-10T03:51:07;7.25;;;3.72;;
40198;SDS011;25906;43.536;26.068;2023-06-10T03:53:52;7.60;;;3.78;;
40198;SDS011;25906;43.536;26.068;2023-06-10T03:56:38;8.00;;;3.78;;
40198;SDS011;25906;43.536;26.068;2023-06-10T03:59:24;4.85;;;3.90;;
40198;SDS011;25906;43.536;26.068;2023-06-10T04:02:10;7.78;;;4.00;;
40198;SDS011;25906;43.536;26.068;2023-06-10T04:07:42;11.13;;;4.20;;
40198;SDS011;25906;43.536;26.068;2023-06-10T04:10:29;7.78;;;4.18;;
40198;SDS011;25906;43.536;26.068;2023-06-10T04:13:14;5.57;;;4.22;;
40198;SDS011;25906;43.536;26.068;2023-06-10T04:16:00;6.40;;;4.82;;
40198;SDS011;25906;43.536;26.068;2023-06-10T04:18:46;7.38;;;4.32;;
40198;SDS011;25906;43.536;26.068;2023-06-10T04:21:31;6.90;;;4.10;;
40198;SDS011;25906;43.536;26.068;2023-06-10T04:24:17;6.60;;;4.03;;
40198;SDS011;25906;43.536;26.068;2023-06-10T04:27:03;7.72;;;3.80;;
40198;SDS011;25906;43.536;26.068;2023-06-10T04:29:49;6.90;;;4.25;;
40198;SDS011;25906;43.536;26.068;2023-06-10T04:32:34;6.75;;;4.05;;
40198;SDS011;25906;43.536;26.068;2023-06-10T04:35:20;8.70;;;4.75;;
40198;SDS011;25906;43.536;26.068;2023-06-10T04:38:05;6.47;;;4.30;;
40198;SDS011;25906;43.536;26.068;2023-06-10T04:40:51;7.13;;;4.00;;
40198;SDS011;25906;43.536;26.068;2023-06-10T04:43:36;5.40;;;3.60;;
40198;SDS011;25906;43.536;26.068;2023-06-10T04:46:22;5.85;;;3.63;;
40198;SDS011;25906;43.536;26.068;2023-06-10T04:49:07;6.00;;;4.07;;
40198;SDS011;25906;43.536;26.068;2023-06-10T04:51:53;4.95;;;3.63;;
40198;SDS011;25906;43.536;26.068;2023-06-10T04:54:38;7.40;;;4.40;;
40198;SDS011;25906;43.536;26.068;2023-06-10T04:57:24;6.97;;;4.70;;
40198;SDS011;25906;43.536;26.068;2023-06-10T05:02:55;8.23;;;5.10;;
40198;SDS011;25906;43.536;26.068;2023-06-10T05:05:41;19.85;;;4.93;;
40198;SDS011;25906;43.536;26.068;2023-06-10T05:08:26;7.40;;;5.32;;
40198;SDS011;25906;43.536;26.068;2023-06-10T05:11:12;5.30;;;3.92;;
40198;SDS011;25906;43.536;26.068;2023-06-10T05:13:58;6.05;;;4.03;;
40198;SDS011;25906;43.536;26.068;2023-06-10T05:16:43;10.88;;;7.35;;
40198;SDS011;25906;43.536;26.068;2023-06-10T05:19:28;9.70;;;6.30;;
40198;SDS011;25906;43.536;26.068;2023-06-10T05:22:14;9.35;;;5.65;;
40198;SDS011;25906;43.536;26.068;2023-06-10T05:25:01;10.18;;;4.97;;
40198;SDS011;25906;43.536;26.068;2023-06-10T05:27:46;8.48;;;4.63;;
40198;SDS011;25906;43.536;26.068;2023-06-10T05:30:32;6.00;;;4.72;;
40198;SDS011;25906;43.536;26.068;2023-06-10T05:33:18;7.85;;;4.63;;
40198;SDS011;25906;43.536;26.068;2023-06-10T05:36:03;8.02;;;4.38;;
40198;SDS011;25906;43.536;26.068;2023-06-10T05:41:34;6.78;;;5.07;;
40198;SDS011;25906;43.536;26.068;2023-06-10T05:44:20;7.22;;;5.05;;
40198;SDS011;25906;43.536;26.068;2023-06-10T05:47:05;7.10;;;4.32;;
40198;SDS011;25906;43.536;26.068;2023-06-10T05:49:52;8.23;;;4.28;;
40198;SDS011;25906;43.536;26.068;2023-06-10T05:52:38;8.55;;;4.70;;
40198;SDS011;25906;43.536;26.068;2023-06-10T05:55:25;7.88;;;5.20;;
40198;SDS011;25906;43.536;26.068;2023-06-10T05:58:11;11.48;;;4.97;;
40198;SDS011;25906;43.536;26.068;2023-06-10T06:00:57;8.18;;;5.10;;
40198;SDS011;25906;43.536;26.068;2023-06-10T06:03:42;7.15;;;4.53;;
40198;SDS011;25906;43.536;26.068;2023-06-10T06:06:28;7.13;;;4.38;;
40198;SDS011;25906;43.536;26.068;2023-06-10T06:09:13;10.00;;;6.72;;
40198;SDS011;25906;43.536;26.068;2023-06-10T06:11:59;6.68;;;4.40;;
40198;SDS011;25906;43.536;26.068;2023-06-10T06:14:44;6.25;;;3.88;;
40198;SDS011;25906;43.536;26.068;2023-06-10T06:17:30;9.82;;;4.20;;
40198;SDS011;25906;43.536;26.068;2023-06-10T06:20:16;11.63;;;4.00;;
40198;SDS011;25906;43.536;26.068;2023-06-10T06:23:01;10.60;;;5.05;;
40198;SDS011;25906;43.536;26.068;2023-06-10T06:25:47;7.43;;;3.80;;
40198;SDS011;25906;43.536;26.068;2023-06-10T06:28:32;5.65;;;3.80;;
40198;SDS011;25906;43.536;26.068;2023-06-10T06:31:18;9.32;;;3.72;;
40198;SDS011;25906;43.536;26.068;2023-06-10T06:34:03;9.20;;;4.10;;
40198;SDS011;25906;43.536;26.068;2023-06-10T06:36:48;12.77;;;4.50;;
40198;SDS011;25906;43.536;26.068;2023-06-10T06:39:34;4.60;;;3.58;;
40198;SDS011;25906;43.536;26.068;2023-06-10T06:42:20;5.75;;;3.70;;
40198;SDS011;25906;43.536;26.068;2023-06-10T06:45:06;7.25;;;3.72;;
40198;SDS011;25906;43.536;26.068;2023-06-10T06:47:51;7.72;;;3.60;;
40198;SDS011;25906;43.536;26.068;2023-06-10T06:50:37;9.88;;;4.38;;
40198;SDS011;25906;43.536;26.068;2023-06-10T06:53:23;6.47;;;3.35;;
40198;SDS011;25906;43.536;26.068;2023-06-10T06:56:13;4.78;;;3.90;;
40198;SDS011;25906;43.536;26.068;2023-06-10T06:58:58;5.00;;;3.75;;
40198;SDS011;25906;43.536;26.068;2023-06-10T07:01:44;6.30;;;3.67;;
40198;SDS011;25906;43.536;26.068;2023-06-10T07:04:30;9.45;;;3.42;;
40198;SDS011;25906;43.536;26.068;2023-06-10T07:07:15;9.00;;;4.15;;
40198;SDS011;25906;43.536;26.068;2023-06-10T07:10:01;6.82;;;3.50;;
40198;SDS011;25906;43.536;26.068;2023-06-10T07:12:46;6.07;;;3.95;;
40198;SDS011;25906;43.536;26.068;2023-06-10T07:15:32;7.78;;;3.70;;
40198;SDS011;25906;43.536;26.068;2023-06-10T07:18:18;9.00;;;4.43;;
40198;SDS011;25906;43.536;26.068;2023-06-10T07:21:03;5.47;;;4.10;;
40198;SDS011;25906;43.536;26.068;2023-06-10T07:23:49;6.47;;;4.32;;
40198;SDS011;25906;43.536;26.068;2023-06-10T07:26:37;8.60;;;3.90;;
40198;SDS011;25906;43.536;26.068;2023-06-10T07:29:23;14.98;;;4.00;;
40198;SDS011;25906;43.536;26.068;2023-06-10T07:32:08;9.38;;;3.63;;
40198;SDS011;25906;43.536;26.068;2023-06-10T07:34:54;7.18;;;4.07;;
40198;SDS011;25906;43.536;26.068;2023-06-10T07:37:40;7.82;;;4.15;;
40198;SDS011;25906;43.536;26.068;2023-06-10T07:40:25;10.98;;;6.78;;
40198;SDS011;25906;43.536;26.068;2023-06-10T07:43:10;8.82;;;4.30;;
40198;SDS011;25906;43.536;26.068;2023-06-10T07:45:56;5.85;;;4.25;;
40198;SDS011;25906;43.536;26.068;2023-06-10T07:48:41;4.38;;;3.65;;
40198;SDS011;25906;43.536;26.068;2023-06-10T07:51:27;7.63;;;3.95;;
40198;SDS011;25906;43.536;26.068;2023-06-10T07:54:12;5.47;;;3.83;;
40198;SDS011;25906;43.536;26.068;2023-06-10T07:59:43;7.05;;;4.50;;
40198;SDS011;25906;43.536;26.068;2023-06-10T08:02:29;11.05;;;4.07;;
40198;SDS011;25906;43.536;26.068;2023-06-10T08:08:00;6.53;;;3.90;;
40198;SDS011;25906;43.536;26.068;2023-06-10T08:10:46;7.25;;;4.72;;
40198;SDS011;25906;43.536;26.068;2023-06-10T08:13:31;7.75;;;4.22;;
40198;SDS011;25906;43.536;26.068;2023-06-10T08:16:17;6.25;;;4.15;;
40198;SDS011;25906;43.536;26.068;2023-06-10T08:19:02;7.03;;;3.88;;
40198;SDS011;25906;43.536;26.068;2023-06-10T08:21:48;5.93;;;3.72;;
40198;SDS011;25906;43.536;26.068;2023-06-10T08:24:33;7.05;;;4.00;;
40198;SDS011;25906;43.536;26.068;2023-06-10T08:27:19;7.00;;;4.10;;
40198;SDS011;25906;43.536;26.068;2023-06-10T08:30:04;9.73;;;4.20;;
40198;SDS011;25906;43.536;26.068;2023-06-10T08:32:50;6.25;;;4.22;;
40198;SDS011;25906;43.536;26.068;2023-06-10T08:35:37;4.95;;;3.53;;
40198;SDS011;25906;43.536;26.068;2023-06-10T08:41:08;8.85;;;4.30;;
40198;SDS011;25906;43.536;26.068;2023-06-10T08:47:15;11.40;;;4.22;;
40198;SDS011;25906;43.536;26.068;2023-06-10T08:52:50;8.50;;;4.20;;
40198;SDS011;25906;43.536;26.068;2023-06-10T08:55:42;7.43;;;4.43;;
40198;SDS011;25906;43.536;26.068;2023-06-10T08:58:32;6.93;;;4.35;;
40198;SDS011;25906;43.536;26.068;2023-06-10T09:01:26;7.03;;;4.30;;
40198;SDS011;25906;43.536;26.068;2023-06-10T09:04:13;8.48;;;4.03;;
40198;SDS011;25906;43.536;26.068;2023-06-10T09:06:58;6.05;;;4.07;;
40198;SDS011;25906;43.536;26.068;2023-06-10T09:09:45;7.85;;;4.20;;
40198;SDS011;25906;43.536;26.068;2023-06-10T09:12:30;6.70;;;3.47;;
40198;SDS011;25906;43.536;26.068;2023-06-10T09:15:16;8.60;;;3.35;;
40198;SDS011;25906;43.536;26.068;2023-06-10T09:18:02;8.70;;;4.07;;
40198;SDS011;25906;43.536;26.068;2023-06-10T09:20:49;8.60;;;3.90;;
40198;SDS011;25906;43.536;26.068;2023-06-10T09:26:21;8.95;;;4.10;;
40198;SDS011;25906;43.536;26.068;2023-06-10T09:29:13;8.63;;;3.58;;
40198;SDS011;25906;43.536;26.068;2023-06-10T09:31:59;6.75;;;3.50;;
40198;SDS011;25906;43.536;26.068;2023-06-10T09:34:46;5.65;;;3.70;;
40198;SDS011;25906;43.536;26.068;2023-06-10T09:37:32;8.02;;;3.33;;
40198;SDS011;25906;43.536;26.068;2023-06-10T09:43:03;8.68;;;3.85;;
40198;SDS011;25906;43.536;26.068;2023-06-10T09:48:37;4.20;;;3.25;;
40198;SDS011;25906;43.536;26.068;2023-06-10T09:51:26;4.88;;;2.92;;
40198;SDS011;25906;43.536;26.068;2023-06-10T09:56:57;6.27;;;3.37;;
40198;SDS011;25906;43.536;26.068;2023-06-10T09:59:45;5.07;;;3.33;;
40198;SDS011;25906;43.536;26.068;2023-06-10T10:02:31;5.13;;;3.15;;
40198;SDS011;25906;43.536;26.068;2023-06-10T10:05:17;6.93;;;3.40;;
40198;SDS011;25906;43.536;26.068;2023-06-10T10:08:06;7.10;;;3.05;;
40198;SDS011;25906;43.536;26.068;2023-06-10T10:10:51;5.22;;;3.10;;
40198;SDS011;25906;43.536;26.068;2023-06-10T10:13:37;5.32;;;3.40;;
40198;SDS011;25906;43.536;26.068;2023-06-10T10:16:26;5.68;;;3.28;;
40198;SDS011;25906;43.536;26.068;2023-06-10T10:19:20;7.07;;;3.67;;
40198;SDS011;25906;43.536;26.068;2023-06-10T10:22:09;8.07;;;3.38;;
40198;SDS011;25906;43.536;26.068;2023-06-10T10:25:01;5.90;;;2.90;;
40198;SDS011;25906;43.536;26.068;2023-06-10T10:27:50;11.85;;;3.50;;
40198;SDS011;25906;43.536;26.068;2023-06-10T10:30:40;7.30;;;3.13;;
40198;SDS011;25906;43.536;26.068;2023-06-10T10:33:35;5.78;;;3.45;;
40198;SDS011;25906;43.536;26.068;2023-06-10T10:36:30;10.25;;;3.10;;
40198;SDS011;25906;43.536;26.068;2023-06-10T10:39:16;13.48;;;3.25;;
40198;SDS011;25906;43.536;26.068;2023-06-10T10:42:03;6.90;;;3.22;;
40198;SDS011;25906;43.536;26.068;2023-06-10T10:44:50;7.88;;;3.17;;
40198;SDS011;25906;43.536;26.068;2023-06-10T10:47:36;5.43;;;3.03;;
40198;SDS011;25906;43.536;26.068;2023-06-10T10:50:24;5.95;;;3.05;;
40198;SDS011;25906;43.536;26.068;2023-06-10T10:53:15;12.73;;;3.65;;
40198;SDS011;25906;43.536;26.068;2023-06-10T10:56:05;16.88;;;3.53;;
40198;SDS011;25906;43.536;26.068;2023-06-10T10:59:05;9.88;;;3.00;;
40198;SDS011;25906;43.536;26.068;2023-06-10T11:01:51;9.25;;;3.45;;
40198;SDS011;25906;43.536;26.068;2023-06-10T11:04:37;8.43;;;3.80;;
40198;SDS011;25906;43.536;26.068;2023-06-10T11:07:30;4.82;;;3.35;;
40198;SDS011;25906;43.536;26.068;2023-06-10T11:10:17;5.25;;;3.00;;
40198;SDS011;25906;43.536;26.068;2023-06-10T11:13:06;13.73;;;2.97;;
40198;SDS011;25906;43.536;26.068;2023-06-10T11:15:56;11.25;;;3.00;;
40198;SDS011;25906;43.536;26.068;2023-06-10T11:18:43;10.48;;;2.90;;
40198;SDS011;25906;43.536;26.068;2023-06-10T11:21:28;4.78;;;3.17;;
40198;SDS011;25906;43.536;26.068;2023-06-10T11:24:13;3.78;;;2.92;;
40198;SDS011;25906;43.536;26.068;2023-06-10T11:27:15;6.38;;;2.85;;
40198;SDS011;25906;43.536;26.068;2023-06-10T11:32:52;4.82;;;2.75;;
40198;SDS011;25906;43.536;26.068;2023-06-10T11:35:40;6.03;;;2.72;;
40198;SDS011;25906;43.536;26.068;2023-06-10T11:41:11;6.93;;;3.35;;
40198;SDS011;25906;43.536;26.068;2023-06-10T11:44:03;5.30;;;3.10;;
40198;SDS011;25906;43.536;26.068;2023-06-10T11:46:50;6.75;;;3.03;;
40198;SDS011;25906;43.536;26.068;2023-06-10T11:49:36;4.20;;;3.25;;
40198;SDS011;25906;43.536;26.068;2023-06-10T11:55:14;4.72;;;3.28;;
40198;SDS011;25906;43.536;26.068;2023-06-10T11:57:59;6.22;;;3.13;;
40198;SDS011;25906;43.536;26.068;2023-06-10T12:03:37;5.70;;;3.20;;
40198;SDS011;25906;43.536;26.068;2023-06-10T12:06:23;8.18;;;3.10;;
40198;SDS011;25906;43.536;26.068;2023-06-10T12:12:01;6.88;;;3.10;;
40198;SDS011;25906;43.536;26.068;2023-06-10T12:14:54;5.75;;;3.50;;
40198;SDS011;25906;43.536;26.068;2023-06-10T12:17:43;6.43;;;3.20;;
40198;SDS011;25906;43.536;26.068;2023-06-10T12:20:29;3.90;;;2.65;;
40198;SDS011;25906;43.536;26.068;2023-06-10T12:23:19;5.30;;;3.50;;
40198;SDS011;25906;43.536;26.068;2023-06-10T12:26:05;6.25;;;3.60;;
40198;SDS011;25906;43.536;26.068;2023-06-10T12:28:50;5.28;;;3.88;;
40198;SDS011;25906;43.536;26.068;2023-06-10T12:31:51;8.38;;;3.83;;
40198;SDS011;25906;43.536;26.068;2023-06-10T12:34:39;7.32;;;3.90;;
40198;SDS011;25906;43.536;26.068;2023-06-10T12:37:25;11.68;;;3.78;;
40198;SDS011;25906;43.536;26.068;2023-06-10T12:40:10;6.03;;;4.22;;
40198;SDS011;25906;43.536;26.068;2023-06-10T12:42:56;5.93;;;3.28;;
40198;SDS011;25906;43.536;26.068;2023-06-10T12:45:43;7.43;;;4.28;;
40198;SDS011;25906;43.536;26.068;2023-06-10T12:48:29;10.30;;;3.95;;
40198;SDS011;25906;43.536;26.068;2023-06-10T12:54:01;7.53;;;3.90;;
40198;SDS011;25906;43.536;26.068;2023-06-10T12:59:32;10.10;;;4.10;;
40198;SDS011;25906;43.536;26.068;2023-06-10T13:05:04;7.75;;;3.78;;
40198;SDS011;25906;43.536;26.068;2023-06-10T13:10:36;8.40;;;4.10;;
40198;SDS011;25906;43.536;26.068;2023-06-10T13:13:22;7.43;;;4.00;;
40198;SDS011;25906;43.536;26.068;2023-06-10T13:18:53;8.85;;;4.00;;
40198;SDS011;25906;43.536;26.068;2023-06-10T13:21:38;5.72;;;4.03;;
40198;SDS011;25906;43.536;26.068;2023-06-10T13:24:24;7.95;;;4.82;;
40198;SDS011;25906;43.536;26.068;2023-06-10T13:27:09;7.28;;;4.03;;
40198;SDS011;25906;43.536;26.068;2023-06-10T13:32:40;12.68;;;4.28;;
40198;SDS011;25906;43.536;26.068;2023-06-10T13:38:11;8.65;;;3.97;;
40198;SDS011;25906;43.536;26.068;2023-06-10T13:40:57;14.35;;;4.18;;
40198;SDS011;25906;43.536;26.068;2023-06-10T13:43:43;6.60;;;4.32;;
40198;SDS011;25906;43.536;26.068;2023-06-10T13:46:28;8.73;;;3.95;;
40198;SDS011;25906;43.536;26.068;2023-06-10T13:49:13;7.00;;;3.88;;
40198;SDS011;25906;43.536;26.068;2023-06-10T13:51:59;8.27;;;4.72;;
40198;SDS011;25906;43.536;26.068;2023-06-10T13:54:44;5.13;;;3.53;;
40198;SDS011;25906;43.536;26.068;2023-06-10T13:57:29;5.45;;;3.75;;
40198;SDS011;25906;43.536;26.068;2023-06-10T14:00:15;9.60;;;3.90;;
40198;SDS011;25906;43.536;26.068;2023-06-10T14:03:01;7.65;;;3.97;;
40198;SDS011;25906;43.536;26.068;2023-06-10T14:05:48;5.75;;;3.92;;
40198;SDS011;25906;43.536;26.068;2023-06-10T14:08:33;8.13;;;4.10;;
40198;SDS011;25906;43.536;26.068;2023-06-10T14:11:19;5.85;;;3.92;;
40198;SDS011;25906;43.536;26.068;2023-06-10T14:14:04;6.40;;;3.95;;
40198;SDS011;25906;43.536;26.068;2023-06-10T14:16:50;6.00;;;3.72;;
40198;SDS011;25906;43.536;26.068;2023-06-10T14:19:35;5.68;;;3.45;;
